createdAt,value
2019-03-31T00:00:35.977Z,8.40
2019-03-31T00:03:06.037Z,8.40
2019-03-31T00:05:37.334Z,8.40
2019-03-31T00:08:06.774Z,8.30
2019-03-31T00:10:36.638Z,8.30
2019-03-31T00:13:06.177Z,8.30
2019-03-31T00:15:35.577Z,8.30
2019-03-31T00:18:05.150Z,8.20
2019-03-31T00:20:34.720Z,8.20
2019-03-31T00:23:04.235Z,8.10
2019-03-31T00:25:34.133Z,8.10
2019-03-31T00:28:05.152Z,8.10
2019-03-31T00:30:34.765Z,8.10
2019-03-31T00:33:04.492Z,8.00
2019-03-31T00:35:34.204Z,8.00
2019-03-31T00:38:03.643Z,7.90
2019-03-31T00:40:34.068Z,7.80
2019-03-31T00:43:03.529Z,7.70
2019-03-31T00:45:33.751Z,7.80
2019-03-31T00:48:03.216Z,7.70
2019-03-31T00:50:33.094Z,7.70
2019-03-31T00:53:02.686Z,7.80
2019-03-31T00:55:32.599Z,7.70
2019-03-31T00:58:02.194Z,7.70
2019-03-31T01:00:51.683Z,7.60
2019-03-31T01:03:22.336Z,7.60
2019-03-31T01:05:52.936Z,7.60
2019-03-31T01:08:24.282Z,7.60
2019-03-31T01:10:54.121Z,7.60
2019-03-31T01:13:23.775Z,7.60
2019-03-31T01:15:55.237Z,7.60
2019-03-31T01:18:25.154Z,7.60
2019-03-31T01:20:54.546Z,7.50
2019-03-31T01:23:24.305Z,7.40
2019-03-31T01:25:54.154Z,7.40
2019-03-31T01:28:23.940Z,7.30
2019-03-31T01:30:53.765Z,7.30
2019-03-31T01:33:23.465Z,7.30
2019-03-31T01:35:53.023Z,7.30
2019-03-31T01:38:22.549Z,7.30
2019-03-31T01:40:52.582Z,7.30
2019-03-31T01:43:22.105Z,7.30
2019-03-31T01:45:51.578Z,7.20
2019-03-31T01:48:20.960Z,7.20
2019-03-31T01:50:50.793Z,7.20
2019-03-31T01:53:20.670Z,7.20
2019-03-31T01:55:50.100Z,7.20
2019-03-31T01:58:19.594Z,7.20
2019-03-31T02:00:53.635Z,7.20
2019-03-31T02:03:23.298Z,7.20
2019-03-31T02:05:52.784Z,7.10
2019-03-31T02:08:22.337Z,7.10
2019-03-31T02:10:51.960Z,7.10
2019-03-31T02:13:21.457Z,7.10
2019-03-31T02:15:50.969Z,7.10
2019-03-31T02:18:20.425Z,7.00
2019-03-31T02:20:49.974Z,7.00
2019-03-31T02:23:19.475Z,7.00
2019-03-31T02:25:49.081Z,7.00
2019-03-31T02:28:18.753Z,6.90
2019-03-31T02:30:49.955Z,6.90
2019-03-31T02:33:20.119Z,6.90
2019-03-31T02:35:50.209Z,6.90
2019-03-31T02:38:19.753Z,6.80
2019-03-31T02:40:49.500Z,6.80
2019-03-31T02:43:19.070Z,6.80
2019-03-31T02:45:48.579Z,6.70
2019-03-31T02:48:18.062Z,6.70
2019-03-31T02:50:50.814Z,6.70
2019-03-31T02:53:21.150Z,6.70
2019-03-31T02:55:51.894Z,6.70
2019-03-31T02:58:21.631Z,6.70
2019-03-31T03:00:51.266Z,6.60
2019-03-31T03:03:21.223Z,6.60
2019-03-31T03:05:51.178Z,6.60
2019-03-31T03:08:21.073Z,6.60
2019-03-31T03:10:52.847Z,6.60
2019-03-31T03:13:24.658Z,6.50
2019-03-31T03:16:22.221Z,6.50
2019-03-31T03:18:51.768Z,6.40
2019-03-31T03:21:24.016Z,6.40
2019-03-31T03:23:53.133Z,6.40
2019-03-31T03:26:22.722Z,6.40
2019-03-31T03:28:52.182Z,6.40
2019-03-31T03:31:21.833Z,6.40
2019-03-31T03:33:51.882Z,6.40
2019-03-31T03:36:21.441Z,6.40
2019-03-31T03:38:50.912Z,6.40
2019-03-31T03:41:20.352Z,6.30
2019-03-31T03:43:55.981Z,6.40
2019-03-31T03:46:22.840Z,6.40
2019-03-31T03:48:52.531Z,6.40
2019-03-31T03:51:22.402Z,6.40
2019-03-31T03:53:51.997Z,6.30
2019-03-31T03:56:21.877Z,6.30
2019-03-31T03:58:51.423Z,6.30
2019-03-31T04:01:22.661Z,6.30
2019-03-31T04:03:52.261Z,6.20
2019-03-31T04:06:22.249Z,6.20
2019-03-31T04:08:51.754Z,6.20
2019-03-31T04:11:29.670Z,6.20
2019-03-31T04:13:59.531Z,6.20
2019-03-31T04:16:29.365Z,6.20
2019-03-31T04:18:59.183Z,6.10
2019-03-31T04:21:28.718Z,6.10
2019-03-31T04:23:58.486Z,6.10
2019-03-31T04:26:28.042Z,6.10
2019-03-31T04:28:58.116Z,6.10
2019-03-31T04:31:27.770Z,6.10
2019-03-31T04:33:57.466Z,6.10
2019-03-31T04:36:26.926Z,6.10
2019-03-31T04:39:00.118Z,6.10
2019-03-31T04:41:28.103Z,6.10
2019-03-31T04:43:57.557Z,6.10
2019-03-31T04:46:27.104Z,6.10
2019-03-31T04:48:56.570Z,6.10
2019-03-31T04:51:26.625Z,6.00
2019-03-31T04:53:56.209Z,6.00
2019-03-31T04:56:25.911Z,6.00
2019-03-31T04:58:55.481Z,5.90
2019-03-31T05:01:25.018Z,5.90
2019-03-31T05:04:04.394Z,5.90
2019-03-31T05:06:26.365Z,5.90
2019-03-31T05:08:56.235Z,5.90
2019-03-31T05:11:25.656Z,5.90
2019-03-31T05:13:55.222Z,5.90
2019-03-31T05:16:24.669Z,5.90
2019-03-31T05:18:54.374Z,5.80
2019-03-31T05:21:24.253Z,5.90
2019-03-31T05:23:53.720Z,5.90
2019-03-31T05:26:23.537Z,5.90
2019-03-31T05:28:53.218Z,5.90
2019-03-31T05:31:22.696Z,5.90
2019-03-31T05:33:52.169Z,5.90
2019-03-31T05:36:21.698Z,6.00
2019-03-31T05:38:51.348Z,6.00
2019-03-31T05:41:20.805Z,6.00
2019-03-31T05:44:04.821Z,6.00
2019-03-31T05:46:21.970Z,6.10
2019-03-31T05:48:51.429Z,6.10
2019-03-31T05:51:21.073Z,6.20
2019-03-31T05:53:50.603Z,6.30
2019-03-31T05:56:20.094Z,6.30
2019-03-31T05:58:50.236Z,6.40
2019-03-31T06:01:19.914Z,6.50
2019-03-31T06:03:49.411Z,6.60
2019-03-31T06:06:19.051Z,6.80
2019-03-31T06:08:48.659Z,6.90
2019-03-31T06:11:18.446Z,7.00
2019-03-31T06:13:47.877Z,7.10
2019-03-31T06:16:17.673Z,7.30
2019-03-31T06:18:47.354Z,7.40
2019-03-31T06:21:17.065Z,7.50
2019-03-31T06:23:46.638Z,7.60
2019-03-31T06:26:16.188Z,7.60
2019-03-31T06:28:45.679Z,7.70
2019-03-31T06:31:15.731Z,7.80
2019-03-31T06:33:45.280Z,7.90
2019-03-31T06:36:14.813Z,7.90
2019-03-31T06:38:44.357Z,8.00
2019-03-31T06:41:13.991Z,8.10
2019-03-31T06:43:43.826Z,8.20
2019-03-31T06:46:13.357Z,8.30
2019-03-31T06:48:43.251Z,8.40
2019-03-31T06:51:13.061Z,8.50
2019-03-31T06:53:42.530Z,8.70
2019-03-31T06:56:11.906Z,8.90
2019-03-31T06:58:41.353Z,8.90
2019-03-31T07:01:11.062Z,9.00
2019-03-31T07:03:40.982Z,9.10
2019-03-31T07:06:10.362Z,9.20
2019-03-31T07:08:40.098Z,9.30
2019-03-31T07:11:09.545Z,9.40
2019-03-31T07:13:38.934Z,9.50
2019-03-31T07:16:08.715Z,9.60
2019-03-31T07:18:38.189Z,9.70
2019-03-31T07:21:07.678Z,9.80
2019-03-31T07:23:37.158Z,10.00
2019-03-31T07:26:06.622Z,10.20
2019-03-31T07:28:36.389Z,10.60
2019-03-31T07:31:05.916Z,10.90
2019-03-31T07:33:35.518Z,11.10
2019-03-31T07:36:04.979Z,11.30
2019-03-31T07:38:39.140Z,11.80
2019-03-31T07:41:12.563Z,12.30
2019-03-31T07:43:37.481Z,12.40
2019-03-31T07:46:07.698Z,12.40
2019-03-31T07:48:37.150Z,12.30
2019-03-31T07:51:06.526Z,12.40
2019-03-31T07:53:35.922Z,12.60
2019-03-31T07:56:05.642Z,12.50
2019-03-31T07:58:35.158Z,12.60
2019-03-31T08:01:04.698Z,12.60
2019-03-31T08:03:34.148Z,12.70
2019-03-31T08:06:03.690Z,12.80
2019-03-31T08:08:33.073Z,12.90
2019-03-31T08:11:02.545Z,13.00
2019-03-31T08:13:31.932Z,13.00
2019-03-31T08:16:01.660Z,13.10
2019-03-31T08:18:31.722Z,13.20
2019-03-31T08:21:01.266Z,13.30
2019-03-31T08:23:30.729Z,13.40
2019-03-31T08:26:00.653Z,13.50
2019-03-31T08:28:30.257Z,13.70
2019-03-31T08:30:59.640Z,13.80
2019-03-31T08:33:29.708Z,13.80
2019-03-31T08:35:59.106Z,14.00
2019-03-31T08:38:28.659Z,14.20
2019-03-31T08:40:58.219Z,14.30
2019-03-31T08:43:27.686Z,14.50
2019-03-31T08:45:58.072Z,14.70
2019-03-31T08:48:27.593Z,14.80
2019-03-31T08:50:58.266Z,15.00
2019-03-31T08:53:28.009Z,15.20
2019-03-31T08:55:57.857Z,15.10
2019-03-31T08:58:27.817Z,15.20
2019-03-31T09:01:01.161Z,15.30
2019-03-31T09:03:30.744Z,15.50
2019-03-31T09:06:02.283Z,15.60
2019-03-31T09:08:31.768Z,15.80
2019-03-31T09:11:01.364Z,16.00
2019-03-31T09:13:30.959Z,16.00
2019-03-31T09:16:02.556Z,16.10
2019-03-31T09:18:31.805Z,16.40
2019-03-31T09:21:01.362Z,16.70
2019-03-31T09:23:30.916Z,17.00
2019-03-31T09:26:00.805Z,17.10
2019-03-31T09:28:30.177Z,17.30
2019-03-31T09:31:00.114Z,17.40
2019-03-31T09:33:29.640Z,17.50
2019-03-31T09:35:59.189Z,17.40
2019-03-31T09:38:28.744Z,17.60
2019-03-31T09:40:58.228Z,17.60
2019-03-31T09:43:27.681Z,17.70
2019-03-31T09:45:57.158Z,17.90
2019-03-31T09:48:26.643Z,18.00
2019-03-31T09:50:56.711Z,18.20
2019-03-31T09:53:26.453Z,18.40
2019-03-31T09:55:56.007Z,18.70
2019-03-31T09:58:25.465Z,18.80
2019-03-31T10:00:55.030Z,19.10
2019-03-31T10:03:24.566Z,19.00
2019-03-31T10:05:54.037Z,19.10
2019-03-31T10:08:23.857Z,19.10
2019-03-31T10:10:53.455Z,19.40
2019-03-31T10:13:23.117Z,19.40
2019-03-31T10:15:52.834Z,19.30
2019-03-31T10:18:22.205Z,19.50
2019-03-31T10:20:51.683Z,19.80
2019-03-31T10:23:21.170Z,19.90
2019-03-31T10:25:50.743Z,20.10
2019-03-31T10:28:20.137Z,20.30
2019-03-31T10:30:49.634Z,20.10
2019-03-31T10:33:19.275Z,20.30
2019-03-31T10:35:49.251Z,20.30
2019-03-31T10:38:18.820Z,20.40
2019-03-31T10:40:48.668Z,20.40
2019-03-31T10:43:18.068Z,20.60
2019-03-31T10:45:47.781Z,20.80
2019-03-31T10:48:20.890Z,21.10
2019-03-31T10:50:48.719Z,21.00
2019-03-31T10:53:18.179Z,21.20
2019-03-31T10:55:48.009Z,21.40
2019-03-31T10:58:17.597Z,21.50
2019-03-31T11:00:47.075Z,21.30
2019-03-31T11:03:16.859Z,21.50
2019-03-31T11:05:46.333Z,21.40
2019-03-31T11:08:16.287Z,21.50
2019-03-31T11:10:46.027Z,21.60
2019-03-31T11:13:15.486Z,21.80
2019-03-31T11:15:45.017Z,21.90
2019-03-31T11:18:14.536Z,22.00
2019-03-31T11:20:44.072Z,21.70
2019-03-31T11:23:21.353Z,22.00
2019-03-31T11:25:50.901Z,21.90
2019-03-31T11:28:20.427Z,21.90
2019-03-31T11:30:50.143Z,22.00
2019-03-31T11:33:19.721Z,22.30
2019-03-31T11:35:49.288Z,22.50
2019-03-31T11:38:18.798Z,22.40
2019-03-31T11:40:48.338Z,22.80
2019-03-31T11:43:18.388Z,22.90
2019-03-31T11:45:48.204Z,23.00
2019-03-31T11:48:17.594Z,23.20
2019-03-31T11:50:47.066Z,23.30
2019-03-31T11:53:16.550Z,23.50
2019-03-31T11:55:46.363Z,23.60
2019-03-31T11:58:15.894Z,23.60
2019-03-31T12:00:54.370Z,23.60
2019-03-31T12:03:24.872Z,23.20
2019-03-31T12:05:54.739Z,23.40
2019-03-31T12:08:24.373Z,23.60
2019-03-31T12:10:53.898Z,24.00
2019-03-31T12:13:23.850Z,24.20
2019-03-31T12:15:53.317Z,24.20
2019-03-31T12:18:22.765Z,24.20
2019-03-31T12:20:52.233Z,24.20
2019-03-31T12:23:21.748Z,24.30
2019-03-31T12:25:51.314Z,24.00
2019-03-31T12:28:20.777Z,24.10
2019-03-31T12:30:50.146Z,24.30
2019-03-31T12:33:19.621Z,24.50
2019-03-31T12:35:49.609Z,24.70
2019-03-31T12:38:19.312Z,24.70
2019-03-31T12:40:48.846Z,24.70
2019-03-31T12:43:18.409Z,25.00
2019-03-31T12:45:48.054Z,25.20
2019-03-31T12:48:17.723Z,25.40
2019-03-31T12:50:47.284Z,25.60
2019-03-31T12:53:17.017Z,25.20
2019-03-31T12:55:59.447Z,25.30
2019-03-31T12:58:17.849Z,25.40
2019-03-31T13:00:47.421Z,25.60
2019-03-31T13:03:16.905Z,25.90
2019-03-31T13:05:46.528Z,25.60
2019-03-31T13:08:15.997Z,25.60
2019-03-31T13:10:45.842Z,25.50
2019-03-31T13:13:15.376Z,25.60
2019-03-31T13:15:44.911Z,24.80
2019-03-31T13:18:14.582Z,25.10
2019-03-31T13:20:44.118Z,25.20
2019-03-31T13:23:13.665Z,25.40
2019-03-31T13:25:43.045Z,25.00
2019-03-31T13:28:12.604Z,24.90
2019-03-31T13:30:42.303Z,25.30
2019-03-31T13:33:11.998Z,25.60
2019-03-31T13:35:41.631Z,25.30
2019-03-31T13:38:11.773Z,25.40
2019-03-31T13:40:44.477Z,25.70
2019-03-31T13:43:14.021Z,26.00
2019-03-31T13:45:43.498Z,25.80
2019-03-31T13:48:12.966Z,25.70
2019-03-31T13:50:42.535Z,25.70
2019-03-31T13:53:12.162Z,26.00
2019-03-31T13:55:41.555Z,26.30
2019-03-31T13:58:13.530Z,26.20
2019-03-31T14:00:42.654Z,26.20
2019-03-31T14:03:12.218Z,26.30
2019-03-31T14:05:41.772Z,26.40
2019-03-31T14:08:24.680Z,26.30
2019-03-31T14:10:42.390Z,26.20
2019-03-31T14:13:12.421Z,25.90
2019-03-31T14:15:41.949Z,25.80
2019-03-31T14:18:11.465Z,26.10
2019-03-31T14:20:41.427Z,26.00
2019-03-31T14:23:10.898Z,26.10
2019-03-31T14:25:40.458Z,25.80
2019-03-31T14:28:10.238Z,25.50
2019-03-31T14:30:39.782Z,25.60
2019-03-31T14:33:09.250Z,25.50
2019-03-31T14:35:38.790Z,25.60
2019-03-31T14:38:08.313Z,25.60
2019-03-31T14:40:38.397Z,25.70
2019-03-31T14:43:07.874Z,25.70
2019-03-31T14:45:38.172Z,25.50
2019-03-31T14:48:07.725Z,25.20
2019-03-31T14:50:39.249Z,25.30
2019-03-31T14:53:09.337Z,25.20
2019-03-31T14:55:38.968Z,25.40
2019-03-31T14:58:08.728Z,25.30
2019-03-31T15:00:38.345Z,25.20
2019-03-31T15:03:08.358Z,25.00
2019-03-31T15:05:37.905Z,25.00
2019-03-31T15:08:07.773Z,24.80
2019-03-31T15:10:37.302Z,24.70
2019-03-31T15:13:07.097Z,24.70
2019-03-31T15:15:36.856Z,24.40
2019-03-31T15:18:06.657Z,24.20
2019-03-31T15:20:36.366Z,24.10
2019-03-31T15:23:05.936Z,23.90
2019-03-31T15:25:35.534Z,24.00
2019-03-31T15:28:05.088Z,24.00
2019-03-31T15:30:34.623Z,23.70
2019-03-31T15:33:04.189Z,23.60
2019-03-31T15:35:33.737Z,23.40
2019-03-31T15:38:03.272Z,23.30
2019-03-31T15:40:32.732Z,23.30
2019-03-31T15:43:02.192Z,23.00
2019-03-31T15:45:31.648Z,22.80
2019-03-31T15:48:01.108Z,22.80
2019-03-31T15:50:30.676Z,22.90
2019-03-31T15:53:00.193Z,22.90
2019-03-31T15:55:29.780Z,22.60
2019-03-31T15:57:59.285Z,22.70
2019-03-31T16:00:28.762Z,22.70
2019-03-31T16:02:58.233Z,22.60
2019-03-31T16:05:28.265Z,22.40
2019-03-31T16:07:57.401Z,22.30
2019-03-31T16:10:26.398Z,22.30
2019-03-31T16:12:55.645Z,22.30
2019-03-31T16:15:24.569Z,22.30
2019-03-31T16:17:53.577Z,22.00
2019-03-31T16:20:22.752Z,22.00
2019-03-31T16:22:51.680Z,21.90
2019-03-31T16:25:32.573Z,21.90
2019-03-31T16:28:01.445Z,22.00
2019-03-31T16:30:31.962Z,21.80
2019-03-31T16:33:00.858Z,21.60
2019-03-31T16:35:29.878Z,21.60
2019-03-31T16:37:58.889Z,21.50
2019-03-31T16:40:28.025Z,21.50
2019-03-31T16:42:57.376Z,21.40
2019-03-31T16:45:26.329Z,21.30
2019-03-31T16:47:55.324Z,21.10
2019-03-31T16:50:25.052Z,21.10
2019-03-31T16:52:54.057Z,20.90
2019-03-31T16:55:23.102Z,20.70
2019-03-31T16:57:52.383Z,20.60
2019-03-31T17:00:21.504Z,20.60
2019-03-31T17:02:50.757Z,20.30
2019-03-31T17:05:22.304Z,20.20
2019-03-31T17:07:50.414Z,19.90
2019-03-31T17:10:19.465Z,19.70
2019-03-31T17:12:48.511Z,19.50
2019-03-31T17:15:17.847Z,19.30
2019-03-31T17:17:46.783Z,19.20
2019-03-31T17:20:15.993Z,19.00
2019-03-31T17:22:44.921Z,18.90
2019-03-31T17:25:13.991Z,18.80
2019-03-31T17:27:42.922Z,18.80
2019-03-31T17:30:13.030Z,18.60
2019-03-31T17:32:41.978Z,18.50
2019-03-31T17:35:10.964Z,18.30
2019-03-31T17:37:39.891Z,18.30
2019-03-31T17:40:09.001Z,18.10
2019-03-31T17:42:38.289Z,18.00
2019-03-31T17:45:07.570Z,17.90
2019-03-31T17:47:36.581Z,17.70
2019-03-31T17:50:06.287Z,17.70
2019-03-31T17:52:35.327Z,17.60
2019-03-31T17:55:04.557Z,17.40
2019-03-31T17:57:33.569Z,17.30
2019-03-31T18:00:02.756Z,17.10
2019-03-31T18:02:31.991Z,17.10
2019-03-31T18:05:00.938Z,16.90
2019-03-31T18:07:29.790Z,16.80
2019-03-31T18:09:58.653Z,16.70
2019-03-31T18:12:27.577Z,16.60
2019-03-31T18:14:56.585Z,16.50
2019-03-31T18:17:25.499Z,16.40
2019-03-31T18:19:54.433Z,16.30
2019-03-31T18:22:23.363Z,16.20
2019-03-31T18:24:52.561Z,16.10
2019-03-31T18:27:21.404Z,16.10
2019-03-31T18:29:50.487Z,16.00
2019-03-31T18:32:19.515Z,16.00
2019-03-31T18:34:48.538Z,15.90
2019-03-31T18:37:17.384Z,15.90
2019-03-31T18:39:46.582Z,15.80
2019-03-31T18:42:15.751Z,15.70
2019-03-31T18:44:44.890Z,15.60
2019-03-31T18:47:13.863Z,15.60
2019-03-31T18:49:43.089Z,15.50
2019-03-31T18:52:11.955Z,15.40
2019-03-31T18:54:50.101Z,15.30
2019-03-31T18:57:36.908Z,15.20
2019-03-31T19:00:34.121Z,15.10
2019-03-31T19:03:14.024Z,15.00
2019-03-31T19:06:02.938Z,14.80
2019-03-31T19:08:59.836Z,14.70
2019-03-31T19:11:36.541Z,14.60
2019-03-31T19:14:18.256Z,14.60
2019-03-31T19:17:06.393Z,14.50
2019-03-31T19:20:03.453Z,14.40
2019-03-31T19:22:53.842Z,14.20
2019-03-31T19:25:40.143Z,14.10
2019-03-31T19:28:27.090Z,14.00
2019-03-31T19:31:12.120Z,13.90
2019-03-31T19:33:58.738Z,13.80
2019-03-31T19:36:41.513Z,13.70
2019-03-31T19:39:37.551Z,13.70
2019-03-31T19:42:28.353Z,13.60
2019-03-31T19:45:15.158Z,13.50
2019-03-31T19:47:52.796Z,13.30
2019-03-31T19:50:59.145Z,13.20
2019-03-31T19:53:38.246Z,13.10
2019-03-31T19:56:29.257Z,13.00
2019-03-31T19:59:11.649Z,12.90
2019-03-31T20:01:58.409Z,12.90
2019-03-31T20:04:49.738Z,12.70
2019-03-31T20:07:28.951Z,12.70
2019-03-31T20:10:15.755Z,12.60
2019-03-31T20:12:53.542Z,12.50
2019-03-31T20:15:50.850Z,12.40
2019-03-31T20:18:47.970Z,12.40
2019-03-31T20:21:31.976Z,12.30
2019-03-31T20:24:04.453Z,12.30
2019-03-31T20:26:42.338Z,12.20
2019-03-31T20:29:25.655Z,12.10
2019-03-31T20:32:02.991Z,11.90
2019-03-31T20:34:39.894Z,11.90
2019-03-31T20:37:34.020Z,11.80
2019-03-31T20:40:21.035Z,11.70
2019-03-31T20:43:07.969Z,11.70
2019-03-31T20:45:36.822Z,11.60
2019-03-31T20:48:05.754Z,11.50
2019-03-31T20:50:34.778Z,11.40
2019-03-31T20:53:03.693Z,11.20
2019-03-31T20:55:32.620Z,11.20
2019-03-31T20:58:01.561Z,11.10
2019-03-31T21:00:30.606Z,11.00
2019-03-31T21:02:59.633Z,11.10
2019-03-31T21:05:28.550Z,11.20
2019-03-31T21:07:57.422Z,11.20
2019-03-31T21:10:26.629Z,11.20
2019-03-31T21:12:55.554Z,11.20
2019-03-31T21:15:24.578Z,11.10
2019-03-31T21:17:53.528Z,11.10
2019-03-31T21:20:22.741Z,11.20
2019-03-31T21:22:51.589Z,11.20
2019-03-31T21:25:20.534Z,11.10
2019-03-31T21:27:49.389Z,11.20
2019-03-31T21:30:18.706Z,11.20
2019-03-31T21:32:47.649Z,11.10
2019-03-31T21:35:16.610Z,11.20
2019-03-31T21:37:45.533Z,11.10
2019-03-31T21:40:14.854Z,11.10
2019-03-31T21:42:43.781Z,11.10
2019-03-31T21:45:12.800Z,11.10
2019-03-31T21:47:41.714Z,11.10
2019-03-31T21:50:11.464Z,11.20
2019-03-31T21:52:40.527Z,11.10
2019-03-31T21:55:09.640Z,11.00
2019-03-31T21:57:39.053Z,11.00
2019-03-31T22:00:09.882Z,11.00
2019-03-31T22:02:38.873Z,11.10
2019-03-31T22:05:08.609Z,11.00
2019-03-31T22:07:37.631Z,11.00
2019-03-31T22:10:06.767Z,11.00
2019-03-31T22:12:35.760Z,11.10
2019-03-31T22:15:05.338Z,11.00
2019-03-31T22:17:34.261Z,11.00
2019-03-31T22:20:03.190Z,11.00
2019-03-31T22:22:32.337Z,11.00
2019-03-31T22:25:01.353Z,11.00
2019-03-31T22:27:30.278Z,10.90
2019-03-31T22:29:59.506Z,10.90
2019-03-31T22:32:28.612Z,10.70
2019-03-31T22:34:58.130Z,10.70
2019-03-31T22:37:26.995Z,10.70
2019-03-31T22:39:56.028Z,10.70
2019-03-31T22:42:25.071Z,10.70
2019-03-31T22:44:54.086Z,10.70
2019-03-31T22:47:23.014Z,10.60
2019-03-31T22:49:52.265Z,10.50
2019-03-31T22:52:21.366Z,10.40
2019-03-31T22:54:50.289Z,10.50
2019-03-31T22:57:19.217Z,10.50
2019-03-31T22:59:48.074Z,10.30
2019-03-31T23:02:17.078Z,10.20
2019-03-31T23:04:46.192Z,10.30
2019-03-31T23:07:15.223Z,10.40
2019-03-31T23:09:44.389Z,10.30
2019-03-31T23:12:13.903Z,10.20
2019-03-31T23:14:42.787Z,10.20
2019-03-31T23:17:11.727Z,10.20
2019-03-31T23:19:40.657Z,10.10
2019-03-31T23:22:09.588Z,10.10
2019-03-31T23:24:39.099Z,10.00
2019-03-31T23:27:08.025Z,10.00
2019-03-31T23:29:36.889Z,9.90
2019-03-31T23:32:06.054Z,9.80
2019-03-31T23:34:34.977Z,9.80
2019-03-31T23:37:03.951Z,9.80
2019-03-31T23:39:32.830Z,9.90
2019-03-31T23:42:01.937Z,9.80
2019-03-31T23:44:30.853Z,9.80
2019-03-31T23:46:59.861Z,9.90
2019-03-31T23:49:28.841Z,10.00
2019-03-31T23:51:57.841Z,10.00
2019-03-31T23:54:26.876Z,10.00
2019-03-31T23:56:55.809Z,10.10
2019-03-31T23:59:24.741Z,10.10
